サンクトペテルブルク の空港の天気 - METARとTAF

プルコヴォ空港(サンクトペテルブルグ) ( ULLI / LED ) - ロシア サンクトペテルブルク
飛行場実況気象(Metar)
観測時間10/23 16:00 MSK (10/23 13:00 UTC)
風向・風速北東 2m/s
視程10km以上
天気現象
全天を覆う雲 雲底高度 1220m
気温3℃
湿度75%
気圧1026hPa
METARULLI 231300Z 05002MPS 9999 OVC040 03/M01 Q1026 R88/290050 NOSIG
過去の天気等 Google飛行場航空写真 Wunderground天気予報

過去48時間のMETAR

飛行場予報(TAF)
発表時間: 10/23 13:58 MSK (10/23 10:58 UTC)
予報対象時間: 23日15時 MSK ~ 24日15時 MSK
風向・風速北 3m/s
視程10km以上
全天の8割程度の雲 雲底高度 340m
全天の8割程度の雲 雲底高度 610m
23日15時 MSK ~ 23日21時 MSK に一時的に
視程2,100m
天気現象弱いしゅう雨雪
全天の8割程度の雲 雲底高度 210m
全天の8割程度の積乱雲 雲底高度 610m
23日21時 MSK ~ 24日9時 MSK に一時的に
視程3,100m
天気現象もや
24日3時 MSK ~ 24日5時 MSK に徐々に
風向・風速北西 3m/s
24日12時 MSK ~ 24日15時 MSK に一時的に
視程3,100m
天気現象弱いしゅう雨雪
全天の8割程度の積乱雲 雲底高度 610m
TAF ULLI 231058Z 2312/2412 01003MPS 9999 BKN011 BKN020
TEMPO 2312/2318 2100 -SHRASN BKN007 BKN020CB
TEMPO 2318/2406 3100 BR
BECMG 2400/2402 31003MPS
TEMPO 2409/2412 3100 -SHRASN BKN020CB